Aérodrome :
LOGIN :

S'inscrire | Disclaimer

   EN    FR    IT 

 










Légende :    VFR   VFR Marginal   IFR   IFR Intensif   IFR Très Intensif
Visi : 
Plafond : 
>= 8 km
>= 3000ft
5 à 8 km
1000 à 3000 ft
1500m à 5 km
500 à 1000 ft
800 à 1500m
200 à 500 ft
< 800m
< 200 ft
Symboles :   Orages  Brouillard  Fortes neiges  Fortes précipitations  Vent > 20 kt
SIGMETs :   Divers  Orages  Givrage  Turbulence  Onde Orograph.  Cendres Volcan.






- Altitude de l'aérodrome : 1197 ft
- Code IATA : SPM


ETAD - Spangdahlem Ab

DERNIER METAR :
  • 231211Z AUTO 07010KT 9999 BKN008 13/11 A2994 RMK AO2 SLP131 $

METARs EXPIRÉS :
  • 231156Z AUTO 06010KT 9999 OVC007 13/10 A2995 RMK AO2 SLP134 T01260103 10127 20093 57011 $
  • 231141Z AUTO 07008KT 9999 OVC007 13/10 A2996 RMK AO2 SLP137 $
  • 231111Z AUTO 06009KT 9999 OVC006 12/10 A2995 RMK AO2 SLP134 $
  • 231056Z AUTO 06009KT 9999 OVC005 12/10 A2996 RMK AO2 VIS 3600 RWY05/23 SLP137 T01200102 $
  • 231041Z AUTO 07010KT 9999 OVC005 12/10 A2996 RMK AO2 VIS 4000 RWY05/23 SLP137 $
  • 231011Z AUTO 07011KT 9999 OVC004 11/10 A2997 RMK AO2 SLP142 $
  • 230956Z AUTO 07012KT 9999 OVC003 11/10 A2998 RMK AO2 VIS 4400 RWY05/23 SLP146 T01110102 $
  • 230926Z COR AUTO 07009KT 4000 OVC003 11/10 A2999 RMK AO2 VIS 4000 RWY05/23 SLP149 $ COR 0943
  • 230918Z 07011KT 4000 BR OVC003 11/10 A2999 RMK VIS 4400 RWY05/23 SLPNO

TAF TAF ETAD
Valide du 23 à 12h jusqu'au 24 à 18h UTC


231200Z 2312/2418 06015KT 9999 BKN007 QNH2997INS
BECMG 2312/2314 09006KT 9999 FEW010 QNH2994INS
BECMG 2320/2321 09005KT 8000 BR BKN010 QNH2986INS
BECMG 2405/2406 19015KT 1600 BR BKN002 QNH2982INS
TEMPO 2406/2410 0400 FG VV002
BECMG 2409/2410 20006KT 4000 BR BKN008 QNH2980INS
BECMG 2411/2412 21006KT 9999 NSW BKN015 QNH2982INS TX16/2314Z TN09/2403Z



MET'MAP, la Météo Aéronautique d'un coup d'oeil ! - Copyright ORBIFLY Décembre 2007 - Disclaimer

ORBIFLY MET'MAP TEAM :

Programmation & Développement : Alexandra Zaïnal
Conception & Développement : Baudouin d'Aumeries
Co-Programmation & Développement : Marc-Olivier Méhu
Soutien technique & logistique : Manuel Goepfert

Contact : metmap@orbifly.com




SOURCES & CREDITS :

   NOAA